createdAt,value
2018-03-01T00:02:54.187Z,22.60
2018-03-01T00:07:56.770Z,21.53
2018-03-01T00:12:59.479Z,18.73
2018-03-01T00:18:02.032Z,24.07
2018-03-01T00:23:04.840Z,20.53
2018-03-01T00:28:07.515Z,21.60
2018-03-01T00:33:10.364Z,22.80
2018-03-01T00:38:12.972Z,20.10
2018-03-01T00:43:15.512Z,20.70
2018-03-01T00:48:18.256Z,22.90
2018-03-01T00:53:20.879Z,18.83
2018-03-01T00:58:23.469Z,20.50
2018-03-01T01:03:26.125Z,21.10
2018-03-01T01:08:28.762Z,22.20
2018-03-01T01:13:32.089Z,20.40
2018-03-01T01:18:35.449Z,19.67
2018-03-01T01:23:38.406Z,19.30
2018-03-01T01:28:41.195Z,18.20
2018-03-01T01:33:44.503Z,18.60
2018-03-01T01:38:47.027Z,21.10
2018-03-01T01:43:49.589Z,21.47
2018-03-01T01:48:53.400Z,26.73
2018-03-01T01:53:55.985Z,21.53
2018-03-01T01:58:58.660Z,20.03
2018-03-01T02:04:01.202Z,22.10
2018-03-01T02:09:03.877Z,17.20
2018-03-01T02:14:06.565Z,20.03
2018-03-01T02:19:09.107Z,19.10
2018-03-01T02:24:11.885Z,19.27
2018-03-01T02:29:16.201Z,15.97
2018-03-01T02:34:18.745Z,19.37
2018-03-01T02:39:21.401Z,17.47
2018-03-01T02:44:24.492Z,23.43
2018-03-01T02:49:27.057Z,17.53
2018-03-01T02:54:29.646Z,18.90
2018-03-01T02:59:32.235Z,18.27
2018-03-01T03:04:34.841Z,20.27
2018-03-01T03:09:37.425Z,16.70
2018-03-01T03:14:40.664Z,16.50
2018-03-01T03:19:44.967Z,16.40
2018-03-01T03:24:47.547Z,19.87
2018-03-01T03:29:50.898Z,20.53
2018-03-01T03:34:53.522Z,18.07
2018-03-01T03:39:56.051Z,18.40
2018-03-01T03:44:58.582Z,17.30
2018-03-01T03:50:01.155Z,17.33
2018-03-01T03:55:03.756Z,16.20
2018-03-01T04:00:06.382Z,17.83
2018-03-01T04:05:08.922Z,15.37
2018-03-01T04:10:11.577Z,15.60
2018-03-01T04:15:14.623Z,15.80
2018-03-01T04:20:17.176Z,17.40
2018-03-01T04:25:19.818Z,15.83
2018-03-01T04:30:22.368Z,17.60
2018-03-01T04:35:24.987Z,17.03
2018-03-01T04:40:28.461Z,20.10
2018-03-01T04:45:30.994Z,16.20
2018-03-01T04:50:33.524Z,15.20
2018-03-01T04:55:36.108Z,13.80
2018-03-01T05:00:38.653Z,17.17
2018-03-01T05:05:41.379Z,20.27
2018-03-01T05:10:43.966Z,17.17
2018-03-01T05:15:46.807Z,18.47
2018-03-01T05:20:49.395Z,15.93
2018-03-01T05:25:52.336Z,18.57
2018-03-01T05:30:55.202Z,18.63
2018-03-01T05:35:57.771Z,18.20
2018-03-01T05:41:01.383Z,20.73
2018-03-01T05:46:04.723Z,17.53
2018-03-01T05:51:07.301Z,14.00
2018-03-01T05:56:09.979Z,16.70
2018-03-01T06:01:12.562Z,15.43
2018-03-01T06:06:16.225Z,18.17
2018-03-01T06:11:19.110Z,16.03
2018-03-01T06:16:21.829Z,17.13
2018-03-01T06:21:24.420Z,16.67
2018-03-01T06:26:26.978Z,18.43
2018-03-01T06:31:30.181Z,19.83
2018-03-01T06:36:33.535Z,17.17
2018-03-01T06:41:36.752Z,20.13
2018-03-01T06:46:39.313Z,15.60
2018-03-01T06:51:42.243Z,18.60
2018-03-01T06:56:44.900Z,23.27
2018-03-01T07:01:47.471Z,17.00
2018-03-01T07:06:50.108Z,17.30
2018-03-01T07:11:53.226Z,22.33
2018-03-01T07:16:55.831Z,16.03
2018-03-01T07:21:58.734Z,19.33
2018-03-01T07:27:01.821Z,15.83
2018-03-01T07:32:05.231Z,18.40
2018-03-01T07:37:07.933Z,15.70
2018-03-01T07:42:10.859Z,18.27
2018-03-01T07:47:13.461Z,18.20
2018-03-01T07:52:16.045Z,18.77
2018-03-01T07:57:18.679Z,19.20
2018-03-01T08:02:21.261Z,15.80
2018-03-01T08:07:24.596Z,13.63
2018-03-01T08:12:28.099Z,16.80
2018-03-01T08:17:30.706Z,16.73
2018-03-01T08:22:33.280Z,15.50
2018-03-01T08:27:36.228Z,18.30
2018-03-01T08:32:39.361Z,15.40
2018-03-01T08:37:41.929Z,14.63
2018-03-01T08:42:45.381Z,19.17
2018-03-01T08:47:47.996Z,17.30
2018-03-01T08:52:51.125Z,18.80
2018-03-01T08:57:53.728Z,15.40
2018-03-01T09:02:56.611Z,19.33
2018-03-01T09:07:59.204Z,17.83
2018-03-01T09:13:01.941Z,16.40
2018-03-01T09:18:04.539Z,18.40
2018-03-01T09:23:08.339Z,16.20
2018-03-01T09:28:10.962Z,16.10
2018-03-01T09:33:13.894Z,17.20
2018-03-01T09:38:16.653Z,17.90
2018-03-01T09:43:19.655Z,17.12
2018-03-01T09:48:23.029Z,18.93
2018-03-01T09:53:25.670Z,18.43
2018-03-01T09:58:28.345Z,17.83
2018-03-01T10:03:31.490Z,17.67
2018-03-01T10:08:34.179Z,21.90
2018-03-01T10:13:37.171Z,19.10
2018-03-01T10:18:39.888Z,19.23
2018-03-01T10:23:42.461Z,18.80
2018-03-01T10:28:45.032Z,21.50
2018-03-01T10:33:47.554Z,20.47
2018-03-01T10:38:50.111Z,20.53
2018-03-01T10:43:53.405Z,19.60
2018-03-01T10:48:56.005Z,23.00
2018-03-01T10:53:58.608Z,23.00
2018-03-01T10:59:01.175Z,22.30
2018-03-01T11:04:03.841Z,20.37
2018-03-01T11:09:06.429Z,18.83
2018-03-01T11:14:09.793Z,23.40
2018-03-01T11:19:12.418Z,22.90
2018-03-01T11:24:15.175Z,20.30
2018-03-01T11:29:17.743Z,21.00
2018-03-01T11:34:20.618Z,24.37
2018-03-01T11:39:23.188Z,21.70
2018-03-01T11:44:25.865Z,22.27
2018-03-01T11:49:28.440Z,23.23
2018-03-01T11:54:31.079Z,21.30
2018-03-01T11:59:33.662Z,24.83
2018-03-01T12:04:36.531Z,17.80
2018-03-01T12:09:39.169Z,18.23
2018-03-01T12:14:41.724Z,20.40
2018-03-01T12:19:44.299Z,19.43
2018-03-01T12:24:46.883Z,19.20
2018-03-01T12:29:49.438Z,19.60
2018-03-01T12:34:52.020Z,20.37
2018-03-01T12:39:54.570Z,19.50
2018-03-01T12:44:57.476Z,18.77
2018-03-01T12:50:00.097Z,18.33
2018-03-01T12:55:03.011Z,24.63
2018-03-01T13:00:05.610Z,23.30
2018-03-01T13:05:08.690Z,22.63
2018-03-01T13:10:12.022Z,19.80
2018-03-01T13:15:14.608Z,23.27
2018-03-01T13:20:17.217Z,20.57
2018-03-01T13:25:20.175Z,17.07
2018-03-01T13:30:26.134Z,18.60
2018-03-01T13:35:46.571Z,20.70
2018-03-01T13:40:49.914Z,19.50
2018-03-01T13:46:04.270Z,22.27
2018-03-01T13:51:06.876Z,21.23
2018-03-01T13:56:09.434Z,20.53
2018-03-01T14:01:12.239Z,19.23
2018-03-01T14:06:15.025Z,19.87
2018-03-01T14:11:18.378Z,28.00
2018-03-01T14:16:20.967Z,22.57
2018-03-01T14:21:23.520Z,22.47
2018-03-01T14:26:27.979Z,14.80
2018-03-01T14:31:31.345Z,17.90
2018-03-01T14:36:34.470Z,17.10
2018-03-01T14:41:37.130Z,19.30
2018-03-01T14:46:40.134Z,18.40
2018-03-01T14:51:43.355Z,17.70
2018-03-01T14:56:46.040Z,26.20
2018-03-01T15:01:48.729Z,23.60
2018-03-01T15:06:51.341Z,15.10
2018-03-01T15:11:54.093Z,20.23
2018-03-01T15:16:57.478Z,16.53
2018-03-01T15:22:00.153Z,19.40
2018-03-01T15:27:02.758Z,22.20
2018-03-01T15:32:05.351Z,19.07
2018-03-01T15:37:08.036Z,20.90
2018-03-01T15:42:10.776Z,22.47
2018-03-01T15:47:13.433Z,20.83
2018-03-01T15:52:16.085Z,25.80
2018-03-01T15:57:19.664Z,18.60
2018-03-01T16:02:22.384Z,19.47
2018-03-01T16:07:25.079Z,20.23
2018-03-01T16:12:27.702Z,16.57
2018-03-01T16:17:30.342Z,23.30
2018-03-01T16:22:32.958Z,17.33
2018-03-01T16:27:35.518Z,19.10
2018-03-01T16:32:38.077Z,34.40
2018-03-01T16:37:40.723Z,28.53
2018-03-01T16:42:43.381Z,44.43
2018-03-01T16:47:46.696Z,25.97
2018-03-01T16:52:49.277Z,44.43
2018-03-01T16:57:52.199Z,35.33
2018-03-01T17:02:54.946Z,32.80
2018-03-01T17:07:57.790Z,21.17
2018-03-01T17:13:00.433Z,33.17
2018-03-01T17:18:03.024Z,29.23
2018-03-01T17:23:05.766Z,30.07
2018-03-01T17:28:08.375Z,25.93
2018-03-01T17:33:10.952Z,24.70
2018-03-01T17:38:13.581Z,28.93
2018-03-01T17:43:16.380Z,25.93
2018-03-01T17:48:19.074Z,29.43
2018-03-01T17:53:22.065Z,26.63
2018-03-01T17:58:25.006Z,22.57
2018-03-01T18:03:27.580Z,25.80
2018-03-01T18:08:30.177Z,25.20
2018-03-01T18:13:33.048Z,21.20
2018-03-01T18:18:35.887Z,32.13
2018-03-01T18:23:38.631Z,23.70
2018-03-01T18:28:41.309Z,24.87
2018-03-01T18:33:44.373Z,24.33
2018-03-01T18:38:48.236Z,20.73
2018-03-01T18:43:52.010Z,21.53
2018-03-01T18:48:54.676Z,27.43
2018-03-01T18:53:58.376Z,21.73
2018-03-01T18:59:01.541Z,24.37
2018-03-01T19:04:04.136Z,25.10
2018-03-01T19:09:06.766Z,20.40
2018-03-01T19:14:09.382Z,23.63
2018-03-01T19:19:12.166Z,23.10
2018-03-01T19:24:14.825Z,23.20
2018-03-01T19:29:17.504Z,22.53
2018-03-01T19:34:21.086Z,24.63
2018-03-01T19:39:23.665Z,23.80
2018-03-01T19:44:26.277Z,23.57
2018-03-01T19:49:29.443Z,24.30
2018-03-01T19:54:32.029Z,24.00
2018-03-01T19:59:34.602Z,25.27
2018-03-01T20:04:37.179Z,26.77
2018-03-01T20:09:39.758Z,27.33
2018-03-01T20:14:42.358Z,22.73
2018-03-01T20:19:44.972Z,22.03
2018-03-01T20:24:47.557Z,20.53
2018-03-01T20:29:50.124Z,29.47
2018-03-01T20:34:53.288Z,28.00
2018-03-01T20:39:55.861Z,29.90
2018-03-01T20:44:59.861Z,25.37
2018-03-01T20:50:02.430Z,26.83
2018-03-01T20:55:05.330Z,25.40
2018-03-01T21:00:08.628Z,26.60
2018-03-01T21:05:11.219Z,29.70
2018-03-01T21:10:13.979Z,30.87
2018-03-01T21:15:16.692Z,28.27
2018-03-01T21:20:19.272Z,25.03
2018-03-01T21:25:21.993Z,30.77
2018-03-01T21:30:25.366Z,28.03
2018-03-01T21:35:27.946Z,31.20
2018-03-01T21:40:31.874Z,34.67
2018-03-01T21:45:34.650Z,30.40
2018-03-01T21:50:37.599Z,27.73
2018-03-01T21:55:40.226Z,46.53
2018-03-01T22:00:42.878Z,31.47
2018-03-01T22:05:45.484Z,28.20
2018-03-01T22:10:48.410Z,25.93
2018-03-01T22:15:51.120Z,29.90
2018-03-01T22:20:55.201Z,30.43
2018-03-01T22:25:57.875Z,35.57
2018-03-01T22:31:01.250Z,28.00
2018-03-01T22:36:04.286Z,27.40
2018-03-01T22:41:07.089Z,30.37
2018-03-01T22:46:13.091Z,26.80
2018-03-01T22:51:15.788Z,28.70
2018-03-01T22:56:18.550Z,29.30
2018-03-01T23:01:21.153Z,26.07
2018-03-01T23:06:23.939Z,26.77
2018-03-01T23:11:26.727Z,31.17
2018-03-01T23:16:30.384Z,25.87
2018-03-01T23:21:33.467Z,25.20
2018-03-01T23:26:36.154Z,26.50
2018-03-01T23:31:39.262Z,25.57
2018-03-01T23:36:42.163Z,19.63
2018-03-01T23:41:45.609Z,24.03
2018-03-01T23:46:48.168Z,21.30
2018-03-01T23:51:51.623Z,24.97
2018-03-01T23:56:54.586Z,25.03
